sensor_id;sensor_type;location;lat;lon;timestamp;temperature;humidity
14471;DHT22;7321;50.802;4.336;2023-02-28T00:01:22;3.00;99.90
14471;DHT22;7321;50.802;4.336;2023-02-28T00:03:48;2.90;99.90
14471;DHT22;7321;50.802;4.336;2023-02-28T00:06:13;2.90;99.90
14471;DHT22;7321;50.802;4.336;2023-02-28T00:08:39;3.00;99.90
14471;DHT22;7321;50.802;4.336;2023-02-28T00:11:08;3.00;99.90
14471;DHT22;7321;50.802;4.336;2023-02-28T00:13:35;2.90;99.90
14471;DHT22;7321;50.802;4.336;2023-02-28T00:16:07;2.90;99.90
14471;DHT22;7321;50.802;4.336;2023-02-28T00:18:33;2.80;99.90
14471;DHT22;7321;50.802;4.336;2023-02-28T00:20:59;2.90;99.90
14471;DHT22;7321;50.802;4.336;2023-02-28T00:23:26;3.00;99.90
14471;DHT22;7321;50.802;4.336;2023-02-28T00:25:52;3.00;99.90
14471;DHT22;7321;50.802;4.336;2023-02-28T00:28:18;3.00;99.90
14471;DHT22;7321;50.802;4.336;2023-02-28T00:30:44;2.90;99.90
14471;DHT22;7321;50.802;4.336;2023-02-28T00:33:10;2.90;99.90
14471;DHT22;7321;50.802;4.336;2023-02-28T00:35:36;2.80;99.90
14471;DHT22;7321;50.802;4.336;2023-02-28T00:38:02;2.70;99.90
14471;DHT22;7321;50.802;4.336;2023-02-28T00:40:28;2.70;99.90
14471;DHT22;7321;50.802;4.336;2023-02-28T00:42:54;2.60;99.90
14471;DHT22;7321;50.802;4.336;2023-02-28T00:45:20;2.60;99.90
14471;DHT22;7321;50.802;4.336;2023-02-28T00:47:46;2.60;99.90
14471;DHT22;7321;50.802;4.336;2023-02-28T00:50:19;2.70;99.90
14471;DHT22;7321;50.802;4.336;2023-02-28T00:52:46;2.70;99.90
14471;DHT22;7321;50.802;4.336;2023-02-28T00:55:12;2.80;99.90
14471;DHT22;7321;50.802;4.336;2023-02-28T00:57:38;2.70;99.90
14471;DHT22;7321;50.802;4.336;2023-02-28T01:00:05;2.70;99.90
14471;DHT22;7321;50.802;4.336;2023-02-28T01:02:31;2.70;99.90
14471;DHT22;7321;50.802;4.336;2023-02-28T01:04:56;2.80;99.90
14471;DHT22;7321;50.802;4.336;2023-02-28T01:07:23;2.80;99.90
14471;DHT22;7321;50.802;4.336;2023-02-28T01:09:49;2.70;99.90
14471;DHT22;7321;50.802;4.336;2023-02-28T01:12:15;2.60;99.90
14471;DHT22;7321;50.802;4.336;2023-02-28T01:14:41;2.60;99.90
14471;DHT22;7321;50.802;4.336;2023-02-28T01:17:07;2.70;99.90
14471;DHT22;7321;50.802;4.336;2023-02-28T01:19:33;2.60;99.90
14471;DHT22;7321;50.802;4.336;2023-02-28T01:22:06;2.60;99.90
14471;DHT22;7321;50.802;4.336;2023-02-28T01:24:32;2.60;99.90
14471;DHT22;7321;50.802;4.336;2023-02-28T01:26:58;2.50;99.90
14471;DHT22;7321;50.802;4.336;2023-02-28T01:29:24;2.50;99.90
14471;DHT22;7321;50.802;4.336;2023-02-28T01:31:50;2.30;99.90
14471;DHT22;7321;50.802;4.336;2023-02-28T01:34:18;2.20;99.90
14471;DHT22;7321;50.802;4.336;2023-02-28T01:36:45;2.20;99.90
14471;DHT22;7321;50.802;4.336;2023-02-28T01:39:11;2.30;99.90
14471;DHT22;7321;50.802;4.336;2023-02-28T01:41:38;2.30;99.90
14471;DHT22;7321;50.802;4.336;2023-02-28T01:46:50;2.40;99.90
14471;DHT22;7321;50.802;4.336;2023-02-28T01:49:17;2.30;99.90
14471;DHT22;7321;50.802;4.336;2023-02-28T01:51:53;2.30;99.90
14471;DHT22;7321;50.802;4.336;2023-02-28T01:54:30;2.10;99.90
14471;DHT22;7321;50.802;4.336;2023-02-28T01:57:05;2.10;99.90
14471;DHT22;7321;50.802;4.336;2023-02-28T01:59:44;2.20;99.90
14471;DHT22;7321;50.802;4.336;2023-02-28T02:02:12;2.20;99.90
14471;DHT22;7321;50.802;4.336;2023-02-28T02:04:45;2.20;99.90
14471;DHT22;7321;50.802;4.336;2023-02-28T02:07:13;2.40;99.90
14471;DHT22;7321;50.802;4.336;2023-02-28T02:09:39;2.20;99.90
14471;DHT22;7321;50.802;4.336;2023-02-28T02:12:23;2.20;99.90
14471;DHT22;7321;50.802;4.336;2023-02-28T02:15:13;2.20;99.90
14471;DHT22;7321;50.802;4.336;2023-02-28T02:17:51;2.20;99.90
14471;DHT22;7321;50.802;4.336;2023-02-28T02:25:58;2.10;99.90
14471;DHT22;7321;50.802;4.336;2023-02-28T02:28:46;2.10;99.90
14471;DHT22;7321;50.802;4.336;2023-02-28T02:32:02;2.20;99.90
14471;DHT22;7321;50.802;4.336;2023-02-28T02:34:29;2.10;99.90
14471;DHT22;7321;50.802;4.336;2023-02-28T02:37:43;2.10;99.90
14471;DHT22;7321;50.802;4.336;2023-02-28T02:40:19;2.00;99.90
14471;DHT22;7321;50.802;4.336;2023-02-28T02:42:52;2.10;99.90
14471;DHT22;7321;50.802;4.336;2023-02-28T02:45:49;2.10;99.90
14471;DHT22;7321;50.802;4.336;2023-02-28T02:48:20;2.00;99.90
14471;DHT22;7321;50.802;4.336;2023-02-28T02:50:51;2.20;99.90
14471;DHT22;7321;50.802;4.336;2023-02-28T02:53:24;2.20;99.90
14471;DHT22;7321;50.802;4.336;2023-02-28T02:55:53;2.20;99.90
14471;DHT22;7321;50.802;4.336;2023-02-28T02:58:28;2.10;99.90
14471;DHT22;7321;50.802;4.336;2023-02-28T03:00:58;2.10;99.90
14471;DHT22;7321;50.802;4.336;2023-02-28T03:03:26;2.10;99.90
14471;DHT22;7321;50.802;4.336;2023-02-28T03:05:57;2.10;99.90
14471;DHT22;7321;50.802;4.336;2023-02-28T03:08:23;2.00;99.90
14471;DHT22;7321;50.802;4.336;2023-02-28T03:10:52;2.00;99.90
14471;DHT22;7321;50.802;4.336;2023-02-28T03:25:01;1.80;99.90
14471;DHT22;7321;50.802;4.336;2023-02-28T03:33:14;1.80;99.90
14471;DHT22;7321;50.802;4.336;2023-02-28T03:35:55;1.80;99.90
14471;DHT22;7321;50.802;4.336;2023-02-28T03:38:33;1.90;99.90
14471;DHT22;7321;50.802;4.336;2023-02-28T03:41:16;1.80;99.90
14471;DHT22;7321;50.802;4.336;2023-02-28T03:43:52;1.80;99.90
14471;DHT22;7321;50.802;4.336;2023-02-28T03:46:22;1.80;99.90
14471;DHT22;7321;50.802;4.336;2023-02-28T03:49:12;1.80;99.90
14471;DHT22;7321;50.802;4.336;2023-02-28T03:51:41;1.60;99.90
14471;DHT22;7321;50.802;4.336;2023-02-28T03:54:12;1.50;99.90
14471;DHT22;7321;50.802;4.336;2023-02-28T03:56:47;1.60;99.90
14471;DHT22;7321;50.802;4.336;2023-02-28T03:59:22;1.60;99.90
14471;DHT22;7321;50.802;4.336;2023-02-28T04:01:51;1.60;99.90
14471;DHT22;7321;50.802;4.336;2023-02-28T04:04:17;1.60;99.90
14471;DHT22;7321;50.802;4.336;2023-02-28T04:06:44;1.50;99.90
14471;DHT22;7321;50.802;4.336;2023-02-28T04:09:12;1.50;99.90
14471;DHT22;7321;50.802;4.336;2023-02-28T04:11:47;1.50;99.90
14471;DHT22;7321;50.802;4.336;2023-02-28T04:14:14;1.50;99.90
14471;DHT22;7321;50.802;4.336;2023-02-28T04:16:41;1.50;99.90
14471;DHT22;7321;50.802;4.336;2023-02-28T04:19:11;1.40;99.90
14471;DHT22;7321;50.802;4.336;2023-02-28T04:21:43;1.50;99.90
14471;DHT22;7321;50.802;4.336;2023-02-28T04:24:17;1.40;99.90
14471;DHT22;7321;50.802;4.336;2023-02-28T04:26:45;1.30;99.90
14471;DHT22;7321;50.802;4.336;2023-02-28T04:29:14;1.30;99.90
14471;DHT22;7321;50.802;4.336;2023-02-28T04:31:43;1.20;99.90
14471;DHT22;7321;50.802;4.336;2023-02-28T04:34:08;1.30;99.90
14471;DHT22;7321;50.802;4.336;2023-02-28T04:36:34;1.50;99.90
14471;DHT22;7321;50.802;4.336;2023-02-28T04:39:00;1.50;99.90
14471;DHT22;7321;50.802;4.336;2023-02-28T04:41:26;1.40;99.90
14471;DHT22;7321;50.802;4.336;2023-02-28T04:43:52;1.30;99.90
14471;DHT22;7321;50.802;4.336;2023-02-28T04:46:19;1.40;99.90
14471;DHT22;7321;50.802;4.336;2023-02-28T04:48:45;1.30;99.90
14471;DHT22;7321;50.802;4.336;2023-02-28T04:51:14;1.20;99.90
14471;DHT22;7321;50.802;4.336;2023-02-28T04:53:42;1.20;99.90
14471;DHT22;7321;50.802;4.336;2023-02-28T04:56:11;1.10;99.90
14471;DHT22;7321;50.802;4.336;2023-02-28T04:58:38;1.10;99.90
14471;DHT22;7321;50.802;4.336;2023-02-28T05:01:29;1.10;99.90
14471;DHT22;7321;50.802;4.336;2023-02-28T05:03:57;1.10;99.90
14471;DHT22;7321;50.802;4.336;2023-02-28T05:06:25;1.20;99.90
14471;DHT22;7321;50.802;4.336;2023-02-28T05:08:52;1.30;99.90
14471;DHT22;7321;50.802;4.336;2023-02-28T05:11:22;1.30;99.90
14471;DHT22;7321;50.802;4.336;2023-02-28T05:13:49;1.40;99.90
14471;DHT22;7321;50.802;4.336;2023-02-28T05:16:16;1.50;99.90
14471;DHT22;7321;50.802;4.336;2023-02-28T05:18:42;1.60;99.90
14471;DHT22;7321;50.802;4.336;2023-02-28T05:21:30;1.50;99.90
14471;DHT22;7321;50.802;4.336;2023-02-28T05:23:59;1.50;99.90
14471;DHT22;7321;50.802;4.336;2023-02-28T05:26:26;1.40;99.90
14471;DHT22;7321;50.802;4.336;2023-02-28T05:28:53;1.30;99.90
14471;DHT22;7321;50.802;4.336;2023-02-28T05:31:19;1.30;99.90
14471;DHT22;7321;50.802;4.336;2023-02-28T05:33:45;1.40;99.90
14471;DHT22;7321;50.802;4.336;2023-02-28T05:36:11;1.40;99.90
14471;DHT22;7321;50.802;4.336;2023-02-28T05:38:37;1.60;99.90
14471;DHT22;7321;50.802;4.336;2023-02-28T05:41:08;1.70;99.90
14471;DHT22;7321;50.802;4.336;2023-02-28T05:43:35;1.70;99.90
14471;DHT22;7321;50.802;4.336;2023-02-28T05:46:05;1.60;99.90
14471;DHT22;7321;50.802;4.336;2023-02-28T05:48:33;1.50;99.90
14471;DHT22;7321;50.802;4.336;2023-02-28T05:50:59;1.60;99.90
14471;DHT22;7321;50.802;4.336;2023-02-28T05:53:24;1.70;99.90
14471;DHT22;7321;50.802;4.336;2023-02-28T05:55:52;1.60;99.90
14471;DHT22;7321;50.802;4.336;2023-02-28T05:58:17;1.60;99.90
14471;DHT22;7321;50.802;4.336;2023-02-28T06:00:44;1.70;99.90
14471;DHT22;7321;50.802;4.336;2023-02-28T06:03:09;1.60;99.90
14471;DHT22;7321;50.802;4.336;2023-02-28T06:05:35;1.60;99.90
14471;DHT22;7321;50.802;4.336;2023-02-28T06:08:01;1.70;99.90
14471;DHT22;7321;50.802;4.336;2023-02-28T06:10:27;1.60;99.90
14471;DHT22;7321;50.802;4.336;2023-02-28T06:12:53;1.80;99.90
14471;DHT22;7321;50.802;4.336;2023-02-28T06:15:19;1.90;99.90
14471;DHT22;7321;50.802;4.336;2023-02-28T06:17:46;2.00;99.90
14471;DHT22;7321;50.802;4.336;2023-02-28T06:20:12;2.20;99.90
14471;DHT22;7321;50.802;4.336;2023-02-28T06:22:41;2.20;99.90
14471;DHT22;7321;50.802;4.336;2023-02-28T06:25:07;2.20;99.90
14471;DHT22;7321;50.802;4.336;2023-02-28T06:27:34;2.10;99.90
14471;DHT22;7321;50.802;4.336;2023-02-28T06:29:59;2.00;99.90
14471;DHT22;7321;50.802;4.336;2023-02-28T06:32:25;2.10;99.90
14471;DHT22;7321;50.802;4.336;2023-02-28T06:34:51;2.00;99.90
14471;DHT22;7321;50.802;4.336;2023-02-28T06:37:17;1.80;99.90
14471;DHT22;7321;50.802;4.336;2023-02-28T06:39:44;1.60;99.90
14471;DHT22;7321;50.802;4.336;2023-02-28T06:42:10;1.70;99.90
14471;DHT22;7321;50.802;4.336;2023-02-28T06:44:36;1.70;99.90
14471;DHT22;7321;50.802;4.336;2023-02-28T06:47:04;1.80;99.90
14471;DHT22;7321;50.802;4.336;2023-02-28T06:49:31;1.90;99.90
14471;DHT22;7321;50.802;4.336;2023-02-28T06:51:58;1.80;99.90
14471;DHT22;7321;50.802;4.336;2023-02-28T06:54:24;1.70;99.90
14471;DHT22;7321;50.802;4.336;2023-02-28T06:56:50;1.70;99.90
14471;DHT22;7321;50.802;4.336;2023-02-28T06:59:16;1.80;99.90
14471;DHT22;7321;50.802;4.336;2023-02-28T07:01:42;1.80;99.90
14471;DHT22;7321;50.802;4.336;2023-02-28T07:04:08;1.90;99.90
14471;DHT22;7321;50.802;4.336;2023-02-28T07:06:34;1.90;99.90
14471;DHT22;7321;50.802;4.336;2023-02-28T07:09:00;2.00;99.90
14471;DHT22;7321;50.802;4.336;2023-02-28T07:11:27;2.10;99.90
14471;DHT22;7321;50.802;4.336;2023-02-28T07:13:54;2.10;99.90
14471;DHT22;7321;50.802;4.336;2023-02-28T07:16:21;2.00;99.90
14471;DHT22;7321;50.802;4.336;2023-02-28T07:18:47;2.10;99.90
14471;DHT22;7321;50.802;4.336;2023-02-28T07:21:13;2.20;99.90
14471;DHT22;7321;50.802;4.336;2023-02-28T07:23:39;2.30;99.90
14471;DHT22;7321;50.802;4.336;2023-02-28T07:26:14;2.40;99.90
14471;DHT22;7321;50.802;4.336;2023-02-28T07:28:47;2.50;99.90
14471;DHT22;7321;50.802;4.336;2023-02-28T07:31:14;2.60;99.90
14471;DHT22;7321;50.802;4.336;2023-02-28T07:33:41;2.80;99.90
14471;DHT22;7321;50.802;4.336;2023-02-28T07:36:10;2.60;99.90
14471;DHT22;7321;50.802;4.336;2023-02-28T07:38:47;2.60;99.90
14471;DHT22;7321;50.802;4.336;2023-02-28T07:41:21;2.70;99.90
14471;DHT22;7321;50.802;4.336;2023-02-28T07:43:47;2.90;99.90
14471;DHT22;7321;50.802;4.336;2023-02-28T07:46:15;2.90;99.90
14471;DHT22;7321;50.802;4.336;2023-02-28T07:48:42;2.80;99.90
14471;DHT22;7321;50.802;4.336;2023-02-28T07:51:08;2.70;99.90
14471;DHT22;7321;50.802;4.336;2023-02-28T07:53:34;2.60;99.90
14471;DHT22;7321;50.802;4.336;2023-02-28T07:56:01;2.50;99.90
14471;DHT22;7321;50.802;4.336;2023-02-28T07:58:29;2.40;99.90
14471;DHT22;7321;50.802;4.336;2023-02-28T08:00:55;2.60;99.90
14471;DHT22;7321;50.802;4.336;2023-02-28T08:03:22;2.70;99.90
14471;DHT22;7321;50.802;4.336;2023-02-28T08:05:48;2.80;99.90
14471;DHT22;7321;50.802;4.336;2023-02-28T08:08:15;2.80;99.90
14471;DHT22;7321;50.802;4.336;2023-02-28T08:10:42;2.90;99.90
14471;DHT22;7321;50.802;4.336;2023-02-28T08:13:08;2.90;99.90
14471;DHT22;7321;50.802;4.336;2023-02-28T08:15:34;3.10;99.90
14471;DHT22;7321;50.802;4.336;2023-02-28T08:18:00;3.20;99.90
14471;DHT22;7321;50.802;4.336;2023-02-28T08:20:26;3.40;99.90
14471;DHT22;7321;50.802;4.336;2023-02-28T08:22:52;3.40;99.90
14471;DHT22;7321;50.802;4.336;2023-02-28T08:25:18;3.30;99.90
14471;DHT22;7321;50.802;4.336;2023-02-28T08:27:44;3.50;99.90
14471;DHT22;7321;50.802;4.336;2023-02-28T08:30:12;3.40;99.90
14471;DHT22;7321;50.802;4.336;2023-02-28T08:32:38;3.40;99.90
14471;DHT22;7321;50.802;4.336;2023-02-28T08:35:04;3.50;99.90
14471;DHT22;7321;50.802;4.336;2023-02-28T08:37:30;3.40;99.90
14471;DHT22;7321;50.802;4.336;2023-02-28T08:39:56;3.30;99.90
14471;DHT22;7321;50.802;4.336;2023-02-28T08:42:23;3.40;99.90
14471;DHT22;7321;50.802;4.336;2023-02-28T08:44:49;3.40;99.90
14471;DHT22;7321;50.802;4.336;2023-02-28T08:47:14;3.30;99.90
14471;DHT22;7321;50.802;4.336;2023-02-28T08:49:40;3.50;99.90
14471;DHT22;7321;50.802;4.336;2023-02-28T08:52:09;3.60;99.90
14471;DHT22;7321;50.802;4.336;2023-02-28T08:54:35;3.70;99.90
14471;DHT22;7321;50.802;4.336;2023-02-28T08:57:02;3.70;99.90
14471;DHT22;7321;50.802;4.336;2023-02-28T08:59:28;3.70;99.90
14471;DHT22;7321;50.802;4.336;2023-02-28T09:01:57;3.80;99.90
14471;DHT22;7321;50.802;4.336;2023-02-28T09:04:23;4.00;99.90
14471;DHT22;7321;50.802;4.336;2023-02-28T09:06:51;3.90;99.90
14471;DHT22;7321;50.802;4.336;2023-02-28T09:09:17;4.10;99.90
14471;DHT22;7321;50.802;4.336;2023-02-28T09:11:43;4.10;99.90
14471;DHT22;7321;50.802;4.336;2023-02-28T09:14:09;3.90;99.90
14471;DHT22;7321;50.802;4.336;2023-02-28T09:16:35;3.70;99.90
14471;DHT22;7321;50.802;4.336;2023-02-28T09:19:01;3.70;99.90
14471;DHT22;7321;50.802;4.336;2023-02-28T09:21:28;3.80;99.90
14471;DHT22;7321;50.802;4.336;2023-02-28T09:23:53;4.00;99.90
14471;DHT22;7321;50.802;4.336;2023-02-28T09:26:25;3.80;99.90
14471;DHT22;7321;50.802;4.336;2023-02-28T09:28:52;3.70;99.90
14471;DHT22;7321;50.802;4.336;2023-02-28T09:31:24;3.50;99.90
14471;DHT22;7321;50.802;4.336;2023-02-28T09:33:57;3.60;99.90
14471;DHT22;7321;50.802;4.336;2023-02-28T09:36:24;3.70;99.90
14471;DHT22;7321;50.802;4.336;2023-02-28T09:38:50;3.70;99.90
14471;DHT22;7321;50.802;4.336;2023-02-28T09:41:39;3.70;99.90
14471;DHT22;7321;50.802;4.336;2023-02-28T09:44:37;3.90;99.90
14471;DHT22;7321;50.802;4.336;2023-02-28T09:47:18;4.10;99.90
14471;DHT22;7321;50.802;4.336;2023-02-28T09:49:47;4.20;99.90
14471;DHT22;7321;50.802;4.336;2023-02-28T09:52:18;4.50;99.90
14471;DHT22;7321;50.802;4.336;2023-02-28T09:54:45;4.50;99.90
14471;DHT22;7321;50.802;4.336;2023-02-28T09:57:34;4.70;99.90
14471;DHT22;7321;50.802;4.336;2023-02-28T10:00:39;4.70;99.90
14471;DHT22;7321;50.802;4.336;2023-02-28T10:03:29;4.80;99.90
14471;DHT22;7321;50.802;4.336;2023-02-28T10:06:20;4.90;99.90
14471;DHT22;7321;50.802;4.336;2023-02-28T10:08:58;5.10;99.90
14471;DHT22;7321;50.802;4.336;2023-02-28T10:11:25;5.00;99.90
14471;DHT22;7321;50.802;4.336;2023-02-28T10:14:02;5.10;99.90
14471;DHT22;7321;50.802;4.336;2023-02-28T10:22:38;4.60;99.90
14471;DHT22;7321;50.802;4.336;2023-02-28T10:25:21;4.70;99.90
14471;DHT22;7321;50.802;4.336;2023-02-28T10:27:47;4.50;99.90
14471;DHT22;7321;50.802;4.336;2023-02-28T10:30:13;4.60;99.90
14471;DHT22;7321;50.802;4.336;2023-02-28T10:32:40;4.70;99.90
14471;DHT22;7321;50.802;4.336;2023-02-28T10:37:45;4.50;99.90
14471;DHT22;7321;50.802;4.336;2023-02-28T10:43:04;4.60;99.90
14471;DHT22;7321;50.802;4.336;2023-02-28T10:45:33;4.80;99.90
14471;DHT22;7321;50.802;4.336;2023-02-28T10:50:33;4.70;99.90
14471;DHT22;7321;50.802;4.336;2023-02-28T10:55:44;5.00;99.90
14471;DHT22;7321;50.802;4.336;2023-02-28T10:58:24;5.20;99.90
14471;DHT22;7321;50.802;4.336;2023-02-28T11:00:51;5.10;99.90
14471;DHT22;7321;50.802;4.336;2023-02-28T11:03:34;4.80;99.90
14471;DHT22;7321;50.802;4.336;2023-02-28T11:06:08;4.70;99.90
14471;DHT22;7321;50.802;4.336;2023-02-28T11:08:56;4.90;99.90
14471;DHT22;7321;50.802;4.336;2023-02-28T11:11:26;5.10;99.90
14471;DHT22;7321;50.802;4.336;2023-02-28T11:13:55;5.00;99.90
14471;DHT22;7321;50.802;4.336;2023-02-28T11:16:32;4.90;99.90
14471;DHT22;7321;50.802;4.336;2023-02-28T11:18:59;4.80;99.90
14471;DHT22;7321;50.802;4.336;2023-02-28T11:21:26;4.80;99.90
14471;DHT22;7321;50.802;4.336;2023-02-28T11:24:04;5.00;99.90
14471;DHT22;7321;50.802;4.336;2023-02-28T11:26:46;5.20;99.90
14471;DHT22;7321;50.802;4.336;2023-02-28T11:29:20;5.40;99.90
14471;DHT22;7321;50.802;4.336;2023-02-28T11:32:02;5.30;99.90
14471;DHT22;7321;50.802;4.336;2023-02-28T11:34:29;5.40;99.90
14471;DHT22;7321;50.802;4.336;2023-02-28T11:36:57;5.20;99.90
14471;DHT22;7321;50.802;4.336;2023-02-28T11:39:24;5.40;99.90
14471;DHT22;7321;50.802;4.336;2023-02-28T11:44:57;5.70;99.90
14471;DHT22;7321;50.802;4.336;2023-02-28T11:53:28;5.90;99.90
14471;DHT22;7321;50.802;4.336;2023-02-28T12:02:03;6.40;99.90
14471;DHT22;7321;50.802;4.336;2023-02-28T12:27:12;6.20;99.90
14471;DHT22;7321;50.802;4.336;2023-02-28T12:30:03;6.20;99.90
14471;DHT22;7321;50.802;4.336;2023-02-28T12:37:37;5.90;99.90
14471;DHT22;7321;50.802;4.336;2023-02-28T12:40:14;6.00;99.90
14471;DHT22;7321;50.802;4.336;2023-02-28T12:42:48;6.10;99.90
14471;DHT22;7321;50.802;4.336;2023-02-28T12:45:20;6.10;99.00
14471;DHT22;7321;50.802;4.336;2023-02-28T12:47:52;5.90;99.60
14471;DHT22;7321;50.802;4.336;2023-02-28T12:50:21;6.00;99.90
14471;DHT22;7321;50.802;4.336;2023-02-28T12:58:36;6.10;97.00
14471;DHT22;7321;50.802;4.336;2023-02-28T13:09:29;5.80;98.40
14471;DHT22;7321;50.802;4.336;2023-02-28T13:11:55;6.00;98.50
14471;DHT22;7321;50.802;4.336;2023-02-28T13:14:35;6.10;97.60
14471;DHT22;7321;50.802;4.336;2023-02-28T13:22:05;6.20;96.80
14471;DHT22;7321;50.802;4.336;2023-02-28T13:24:41;6.20;96.40
14471;DHT22;7321;50.802;4.336;2023-02-28T13:29:34;6.20;96.00
14471;DHT22;7321;50.802;4.336;2023-02-28T13:37:32;6.40;96.30
14471;DHT22;7321;50.802;4.336;2023-02-28T13:47:58;6.30;93.40
14471;DHT22;7321;50.802;4.336;2023-02-28T13:50:38;6.20;94.10
14471;DHT22;7321;50.802;4.336;2023-02-28T13:53:23;6.30;94.30
14471;DHT22;7321;50.802;4.336;2023-02-28T13:59:12;6.10;93.80
14471;DHT22;7321;50.802;4.336;2023-02-28T14:06:53;6.30;94.70
14471;DHT22;7321;50.802;4.336;2023-02-28T14:09:27;6.40;94.40
14471;DHT22;7321;50.802;4.336;2023-02-28T14:11:54;6.40;93.50
14471;DHT22;7321;50.802;4.336;2023-02-28T14:17:14;6.40;94.10
14471;DHT22;7321;50.802;4.336;2023-02-28T14:19:44;6.40;94.30
14471;DHT22;7321;50.802;4.336;2023-02-28T14:31:02;6.40;94.60
14471;DHT22;7321;50.802;4.336;2023-02-28T14:33:57;6.30;93.70
14471;DHT22;7321;50.802;4.336;2023-02-28T14:36:30;6.10;93.90
14471;DHT22;7321;50.802;4.336;2023-02-28T14:39:06;6.00;95.10
14471;DHT22;7321;50.802;4.336;2023-02-28T14:41:40;6.00;95.20
14471;DHT22;7321;50.802;4.336;2023-02-28T14:44:22;5.90;95.50
14471;DHT22;7321;50.802;4.336;2023-02-28T14:46:53;5.80;95.80
14471;DHT22;7321;50.802;4.336;2023-02-28T14:49:28;6.00;96.90
14471;DHT22;7321;50.802;4.336;2023-02-28T14:52:05;6.20;96.50
14471;DHT22;7321;50.802;4.336;2023-02-28T14:54:36;6.30;95.20
14471;DHT22;7321;50.802;4.336;2023-02-28T14:57:02;6.20;95.70
14471;DHT22;7321;50.802;4.336;2023-02-28T14:59:34;6.10;95.90
14471;DHT22;7321;50.802;4.336;2023-02-28T15:02:16;6.10;95.70
14471;DHT22;7321;50.802;4.336;2023-02-28T15:04:42;6.10;96.20
14471;DHT22;7321;50.802;4.336;2023-02-28T15:07:14;6.20;95.80
14471;DHT22;7321;50.802;4.336;2023-02-28T15:09:40;6.20;95.90
14471;DHT22;7321;50.802;4.336;2023-02-28T15:12:07;6.30;96.30
14471;DHT22;7321;50.802;4.336;2023-02-28T15:14:34;6.30;96.10
14471;DHT22;7321;50.802;4.336;2023-02-28T15:17:08;6.40;96.00
14471;DHT22;7321;50.802;4.336;2023-02-28T15:19:41;6.60;96.00
14471;DHT22;7321;50.802;4.336;2023-02-28T15:22:12;6.60;95.10
14471;DHT22;7321;50.802;4.336;2023-02-28T15:24:44;6.20;95.20
14471;DHT22;7321;50.802;4.336;2023-02-28T15:27:20;6.00;96.60
14471;DHT22;7321;50.802;4.336;2023-02-28T15:29:53;5.80;97.30
14471;DHT22;7321;50.802;4.336;2023-02-28T15:32:31;5.90;98.00
14471;DHT22;7321;50.802;4.336;2023-02-28T15:34:59;6.10;97.70
14471;DHT22;7321;50.802;4.336;2023-02-28T15:37:44;6.10;97.90
14471;DHT22;7321;50.802;4.336;2023-02-28T15:43:13;6.10;97.90
14471;DHT22;7321;50.802;4.336;2023-02-28T15:48:21;6.00;98.20
14471;DHT22;7321;50.802;4.336;2023-02-28T15:50:54;6.00;98.50
14471;DHT22;7321;50.802;4.336;2023-02-28T15:53:30;6.00;98.90
14471;DHT22;7321;50.802;4.336;2023-02-28T15:56:01;6.20;98.90
14471;DHT22;7321;50.802;4.336;2023-02-28T15:58:28;6.10;98.50
14471;DHT22;7321;50.802;4.336;2023-02-28T16:01:24;6.00;99.10
14471;DHT22;7321;50.802;4.336;2023-02-28T16:03:53;5.80;99.50
14471;DHT22;7321;50.802;4.336;2023-02-28T16:06:34;5.80;99.80
14471;DHT22;7321;50.802;4.336;2023-02-28T16:09:00;5.80;99.90
14471;DHT22;7321;50.802;4.336;2023-02-28T16:11:26;5.70;99.90
14471;DHT22;7321;50.802;4.336;2023-02-28T16:13:55;5.70;99.90
14471;DHT22;7321;50.802;4.336;2023-02-28T16:16:24;5.80;99.90
14471;DHT22;7321;50.802;4.336;2023-02-28T16:18:50;5.90;99.90
14471;DHT22;7321;50.802;4.336;2023-02-28T16:21:17;5.90;99.90
14471;DHT22;7321;50.802;4.336;2023-02-28T16:23:42;5.80;99.90
14471;DHT22;7321;50.802;4.336;2023-02-28T16:26:18;5.80;99.90
14471;DHT22;7321;50.802;4.336;2023-02-28T16:28:47;5.90;99.90
14471;DHT22;7321;50.802;4.336;2023-02-28T16:31:16;5.80;99.90
14471;DHT22;7321;50.802;4.336;2023-02-28T16:33:46;5.70;99.90
14471;DHT22;7321;50.802;4.336;2023-02-28T16:36:17;5.70;99.90
14471;DHT22;7321;50.802;4.336;2023-02-28T16:38:46;5.60;99.90
14471;DHT22;7321;50.802;4.336;2023-02-28T16:41:17;5.60;99.90
14471;DHT22;7321;50.802;4.336;2023-02-28T16:43:48;5.70;99.90
14471;DHT22;7321;50.802;4.336;2023-02-28T16:46:21;5.60;99.90
14471;DHT22;7321;50.802;4.336;2023-02-28T16:48:47;5.50;99.90
14471;DHT22;7321;50.802;4.336;2023-02-28T16:51:17;5.40;99.90
14471;DHT22;7321;50.802;4.336;2023-02-28T16:53:44;5.40;99.90
14471;DHT22;7321;50.802;4.336;2023-02-28T16:56:18;5.50;99.90
14471;DHT22;7321;50.802;4.336;2023-02-28T16:58:45;5.30;99.90
14471;DHT22;7321;50.802;4.336;2023-02-28T17:01:11;5.40;99.90
14471;DHT22;7321;50.802;4.336;2023-02-28T17:03:37;5.20;99.90
14471;DHT22;7321;50.802;4.336;2023-02-28T17:06:04;5.20;99.90
14471;DHT22;7321;50.802;4.336;2023-02-28T17:08:31;5.20;99.90
14471;DHT22;7321;50.802;4.336;2023-02-28T17:10:58;5.10;99.90
14471;DHT22;7321;50.802;4.336;2023-02-28T17:13:24;5.10;99.90
14471;DHT22;7321;50.802;4.336;2023-02-28T17:15:50;5.20;99.90
14471;DHT22;7321;50.802;4.336;2023-02-28T17:18:18;5.20;99.90
14471;DHT22;7321;50.802;4.336;2023-02-28T17:20:45;5.20;99.90
14471;DHT22;7321;50.802;4.336;2023-02-28T17:23:14;5.30;99.90
14471;DHT22;7321;50.802;4.336;2023-02-28T17:25:41;5.30;99.90
14471;DHT22;7321;50.802;4.336;2023-02-28T17:28:08;5.10;99.90
14471;DHT22;7321;50.802;4.336;2023-02-28T17:30:34;5.10;99.90
14471;DHT22;7321;50.802;4.336;2023-02-28T17:33:00;5.10;99.90
14471;DHT22;7321;50.802;4.336;2023-02-28T17:35:26;5.30;99.90
14471;DHT22;7321;50.802;4.336;2023-02-28T17:37:52;5.20;99.90
14471;DHT22;7321;50.802;4.336;2023-02-28T17:40:22;5.20;99.90
14471;DHT22;7321;50.802;4.336;2023-02-28T17:42:48;5.20;99.90
14471;DHT22;7321;50.802;4.336;2023-02-28T17:45:15;5.20;99.90
14471;DHT22;7321;50.802;4.336;2023-02-28T17:47:43;5.20;99.90
14471;DHT22;7321;50.802;4.336;2023-02-28T17:50:17;5.20;99.90
14471;DHT22;7321;50.802;4.336;2023-02-28T17:52:43;5.00;99.90
14471;DHT22;7321;50.802;4.336;2023-02-28T17:55:09;5.00;99.90
14471;DHT22;7321;50.802;4.336;2023-02-28T17:57:35;4.90;99.90
14471;DHT22;7321;50.802;4.336;2023-02-28T18:00:01;4.90;99.90
14471;DHT22;7321;50.802;4.336;2023-02-28T18:02:31;4.90;99.90
14471;DHT22;7321;50.802;4.336;2023-02-28T18:04:56;4.90;99.90
14471;DHT22;7321;50.802;4.336;2023-02-28T18:07:24;4.90;99.90
14471;DHT22;7321;50.802;4.336;2023-02-28T18:09:50;5.00;99.90
14471;DHT22;7321;50.802;4.336;2023-02-28T18:12:16;5.00;99.90
14471;DHT22;7321;50.802;4.336;2023-02-28T18:14:42;5.00;99.90
14471;DHT22;7321;50.802;4.336;2023-02-28T18:17:10;5.00;99.90
14471;DHT22;7321;50.802;4.336;2023-02-28T18:19:37;5.00;99.90
14471;DHT22;7321;50.802;4.336;2023-02-28T18:22:04;5.10;99.90
14471;DHT22;7321;50.802;4.336;2023-02-28T18:24:32;5.20;99.90
14471;DHT22;7321;50.802;4.336;2023-02-28T18:26:58;5.10;99.90
14471;DHT22;7321;50.802;4.336;2023-02-28T18:29:26;5.20;99.90
14471;DHT22;7321;50.802;4.336;2023-02-28T18:31:54;5.20;99.90
14471;DHT22;7321;50.802;4.336;2023-02-28T18:34:21;5.10;99.90
14471;DHT22;7321;50.802;4.336;2023-02-28T18:36:48;5.10;99.90
14471;DHT22;7321;50.802;4.336;2023-02-28T18:39:15;5.00;99.90
14471;DHT22;7321;50.802;4.336;2023-02-28T18:41:41;4.90;99.90
14471;DHT22;7321;50.802;4.336;2023-02-28T18:44:07;4.80;99.90
14471;DHT22;7321;50.802;4.336;2023-02-28T18:46:33;4.80;99.90